createdAt,value
2023-02-11T00:02:18.291Z,6.7
2023-02-11T00:12:26.469Z,6.5
2023-02-11T00:22:34.528Z,6.5
2023-02-11T00:32:42.576Z,6.5
2023-02-11T00:42:50.589Z,6.4
2023-02-11T00:52:59.239Z,6.4
2023-02-11T01:03:07.791Z,6.7
2023-02-11T01:13:15.854Z,6.7
2023-02-11T01:23:23.956Z,6.2
2023-02-11T01:33:32.901Z,6.1
2023-02-11T01:43:40.982Z,6.4
2023-02-11T01:53:48.956Z,7
2023-02-11T02:03:57.256Z,6.8
2023-02-11T02:14:05.457Z,6.4
2023-02-11T02:24:14.207Z,5.8
2023-02-11T02:34:14.016Z,6.1
2023-02-11T02:44:22.296Z,6
2023-02-11T02:54:30.706Z,6
2023-02-11T03:04:38.865Z,6
2023-02-11T03:14:48.217Z,6.1
2023-02-11T03:24:56.306Z,5.9
2023-02-11T03:35:04.347Z,5.6
2023-02-11T03:45:12.518Z,5.2
2023-02-11T03:55:20.568Z,5
2023-02-11T04:05:28.536Z,4.9
2023-02-11T04:15:36.545Z,4.7
2023-02-11T04:25:44.108Z,4.5
2023-02-11T04:35:52.360Z,4.3
2023-02-11T04:46:00.252Z,4.3
2023-02-11T04:56:08.088Z,4.4
2023-02-11T05:06:16.065Z,4.5
2023-02-11T05:16:23.917Z,4.4
2023-02-11T05:26:33.901Z,4.5
2023-02-11T05:36:41.830Z,4.5
2023-02-11T05:46:49.798Z,4.7
2023-02-11T05:56:57.857Z,4.6
2023-02-11T06:07:06.302Z,4.6
2023-02-11T06:17:15.632Z,4.4
2023-02-11T06:27:21.993Z,4.4
2023-02-11T06:37:29.974Z,4
2023-02-11T06:47:39.859Z,3.9
2023-02-11T06:57:47.919Z,4
2023-02-11T07:07:57.124Z,3.5
2023-02-11T07:17:59.770Z,3.9
2023-02-11T07:28:09.214Z,4.1
2023-02-11T07:38:10.068Z,3.8
2023-02-11T07:48:14.522Z,3.6
2023-02-11T08:08:20.712Z,4.7
2023-02-11T08:18:33.671Z,6
2023-02-11T08:28:37.797Z,6.9
2023-02-11T08:38:47.613Z,7.3
2023-02-11T08:48:46.180Z,7.4
2023-02-11T08:58:55.482Z,8.1
2023-02-11T09:09:03.480Z,8.4
2023-02-11T09:19:17.358Z,8.6
2023-02-11T09:29:12.405Z,9.1
2023-02-11T09:39:13.381Z,9.5
2023-02-11T09:49:13.739Z,9.7
2023-02-11T09:59:24.598Z,10.8
2023-02-11T10:09:34.130Z,11.5
2023-02-11T10:19:35.852Z,11.7
2023-02-11T10:29:43.950Z,11.8
2023-02-11T10:39:51.903Z,12.3
2023-02-11T10:49:59.836Z,12.8
2023-02-11T11:00:08.016Z,13.2
2023-02-11T11:10:16.392Z,13.6
2023-02-11T11:20:24.601Z,14.1
2023-02-11T11:30:30.298Z,14.8
2023-02-11T11:40:31.738Z,15.2
2023-02-11T11:50:37.290Z,15.4
2023-02-11T12:00:45.181Z,15.5
2023-02-11T12:10:48.495Z,16.1
2023-02-11T12:20:55.042Z,15.3
2023-02-11T12:30:57.329Z,15.3
2023-02-11T12:41:00.970Z,15
2023-02-11T12:51:08.935Z,15.2
2023-02-11T13:01:32.528Z,15
2023-02-11T13:11:23.203Z,14.5
2023-02-11T13:21:25.138Z,15
2023-02-11T13:31:32.575Z,14.1
2023-02-11T13:41:34.393Z,14.5
2023-02-11T14:01:36.656Z,14.2
2023-02-11T14:21:44.909Z,14.7
2023-02-11T14:31:48.705Z,14.6
2023-02-11T14:41:58.063Z,14.4
2023-02-11T15:02:00.441Z,14.2
2023-02-11T15:12:07.847Z,14.3
2023-02-11T15:22:15.799Z,14.3
2023-02-11T15:32:29.101Z,14.7
2023-02-11T15:42:47.345Z,14.3
2023-02-11T15:52:38.475Z,14.2
2023-02-11T16:12:54.937Z,14.1
2023-02-11T16:22:52.339Z,13.9
2023-02-11T16:33:03.675Z,13.8
2023-02-11T16:43:11.861Z,13.6
2023-02-11T16:53:58.202Z,13.6
2023-02-11T17:03:14.981Z,14
2023-02-11T17:13:23.804Z,13.2
2023-02-11T17:23:31.729Z,12.9
2023-02-11T17:33:37.241Z,12.7
2023-02-11T17:43:45.880Z,12.7
2023-02-11T17:53:57.965Z,12.7
2023-02-11T18:03:54.036Z,12.9
2023-02-11T18:14:03.888Z,12.3
2023-02-11T18:34:07.774Z,12
2023-02-11T18:44:07.371Z,11.8
2023-02-11T18:54:16.288Z,11.5
2023-02-11T19:04:14.103Z,10.7
2023-02-11T19:14:26.163Z,10.5
2023-02-11T19:24:32.370Z,10
2023-02-11T19:34:26.501Z,10.4
2023-02-11T19:44:28.645Z,10.4
2023-02-11T19:54:33.445Z,10.4
2023-02-11T20:04:42.609Z,10.2
2023-02-11T20:14:43.953Z,10
2023-02-11T20:25:38.441Z,9.6
2023-02-11T20:34:57.258Z,9.4
2023-02-11T20:44:51.436Z,9.4
2023-02-11T20:55:10.539Z,9.6
2023-02-11T21:05:01.146Z,8.9
2023-02-11T21:15:11.638Z,9
2023-02-11T21:25:13.041Z,8.4
2023-02-11T21:35:12.835Z,8.3
2023-02-11T21:45:21.328Z,8.2
2023-02-11T21:55:29.660Z,7.6
2023-02-11T22:05:38.371Z,8
2023-02-11T22:15:46.462Z,8
2023-02-11T22:25:55.033Z,8.1
2023-02-11T22:36:03.210Z,8.1
2023-02-11T22:46:12.569Z,7.4
2023-02-11T22:56:20.538Z,6.7
2023-02-11T23:06:28.585Z,6.6
2023-02-11T23:16:36.738Z,6.6
2023-02-11T23:26:44.834Z,6.4
2023-02-11T23:36:52.930Z,6.3
2023-02-11T23:47:01.137Z,6.2
2023-02-11T23:57:09.101Z,6.2
